sensor_id;sensor_type;location;lat;lon;timestamp;pressure;altitude;pressure_sealevel;temperature;humidity
3132;BME280;62090;52.330;9.104;2023-12-22T00:01:22;98945.81;;;5.53;100.00
3132;BME280;62090;52.330;9.104;2023-12-22T00:03:52;98873.66;;;5.15;100.00
3132;BME280;62090;52.330;9.104;2023-12-22T00:06:23;98950.91;;;5.57;100.00
3132;BME280;62090;52.330;9.104;2023-12-22T00:08:53;98866.09;;;5.15;100.00
3132;BME280;62090;52.330;9.104;2023-12-22T00:11:22;98945.91;;;5.61;100.00
3132;BME280;62090;52.330;9.104;2023-12-22T00:13:55;98922.16;;;5.48;100.00
3132;BME280;62090;52.330;9.104;2023-12-22T00:16:25;98953.56;;;5.64;100.00
3132;BME280;62090;52.330;9.104;2023-12-22T00:18:55;98935.59;;;5.44;100.00
3132;BME280;62090;52.330;9.104;2023-12-22T00:21:25;98971.28;;;5.67;100.00
3132;BME280;62090;52.330;9.104;2023-12-22T00:23:55;98938.31;;;5.58;100.00
3132;BME280;62090;52.330;9.104;2023-12-22T00:26:25;98964.81;;;5.84;100.00
3132;BME280;62090;52.330;9.104;2023-12-22T00:28:58;98813.41;;;4.81;100.00
3132;BME280;62090;52.330;9.104;2023-12-22T00:31:28;98935.28;;;5.80;100.00
3132;BME280;62090;52.330;9.104;2023-12-22T00:33:58;98965.03;;;5.98;100.00
3132;BME280;62090;52.330;9.104;2023-12-22T00:36:28;98889.41;;;5.53;100.00
3132;BME280;62090;52.330;9.104;2023-12-22T00:38:58;98969.06;;;5.87;100.00
3132;BME280;62090;52.330;9.104;2023-12-22T00:41:27;98955.53;;;5.83;100.00
3132;BME280;62090;52.330;9.104;2023-12-22T00:44:00;98954.78;;;5.89;100.00
3132;BME280;62090;52.330;9.104;2023-12-22T00:46:30;98989.53;;;6.04;100.00
3132;BME280;62090;52.330;9.104;2023-12-22T00:48:59;98961.59;;;5.93;100.00
3132;BME280;62090;52.330;9.104;2023-12-22T00:51:29;98989.53;;;6.04;100.00
3132;BME280;62090;52.330;9.104;2023-12-22T00:53:59;98938.50;;;5.70;100.00
3132;BME280;62090;52.330;9.104;2023-12-22T00:56:31;98887.00;;;5.06;100.00
3132;BME280;62090;52.330;9.104;2023-12-22T00:59:03;98963.00;;;5.77;100.00
3132;BME280;62090;52.330;9.104;2023-12-22T01:01:38;98967.41;;;5.87;100.00
3132;BME280;62090;52.330;9.104;2023-12-22T01:04:08;98945.03;;;5.58;100.00
3132;BME280;62090;52.330;9.104;2023-12-22T01:06:38;98980.91;;;5.89;100.00
3132;BME280;62090;52.330;9.104;2023-12-22T01:09:08;98944.28;;;5.63;99.90
3132;BME280;62090;52.330;9.104;2023-12-22T01:11:38;98902.59;;;5.34;99.41
3132;BME280;62090;52.330;9.104;2023-12-22T01:14:11;98995.16;;;5.86;100.00
3132;BME280;62090;52.330;9.104;2023-12-22T01:16:41;98963.72;;;5.69;99.63
3132;BME280;62090;52.330;9.104;2023-12-22T01:19:11;98912.75;;;5.40;99.44
3132;BME280;62090;52.330;9.104;2023-12-22T01:21:41;98992.72;;;5.90;99.47
3132;BME280;62090;52.330;9.104;2023-12-22T01:24:11;98917.97;;;5.50;100.00
3132;BME280;62090;52.330;9.104;2023-12-22T01:26:41;98955.22;;;5.62;99.63
3132;BME280;62090;52.330;9.104;2023-12-22T01:29:15;98984.88;;;5.74;99.69
3132;BME280;62090;52.330;9.104;2023-12-22T01:31:45;99003.44;;;5.77;99.28
3132;BME280;62090;52.330;9.104;2023-12-22T01:34:15;98973.81;;;5.67;100.00
3132;BME280;62090;52.330;9.104;2023-12-22T01:36:45;99021.28;;;5.86;100.00
3132;BME280;62090;52.330;9.104;2023-12-22T01:39:14;98980.59;;;5.71;100.00
3132;BME280;62090;52.330;9.104;2023-12-22T01:41:44;99023.91;;;5.91;100.00
3132;BME280;62090;52.330;9.104;2023-12-22T01:44:17;98924.47;;;5.35;99.22
3132;BME280;62090;52.330;9.104;2023-12-22T01:46:46;99017.13;;;5.88;99.58
3132;BME280;62090;52.330;9.104;2023-12-22T01:49:16;98866.56;;;4.91;98.50
3132;BME280;62090;52.330;9.104;2023-12-22T01:51:47;99017.88;;;5.84;98.48
3132;BME280;62090;52.330;9.104;2023-12-22T01:54:17;99046.25;;;5.68;98.52
3132;BME280;62090;52.330;9.104;2023-12-22T01:56:48;98991.97;;;5.45;98.94
3132;BME280;62090;52.330;9.104;2023-12-22T01:59:21;98998.97;;;5.61;99.59
3132;BME280;62090;52.330;9.104;2023-12-22T02:01:51;99035.44;;;5.75;99.11
3132;BME280;62090;52.330;9.104;2023-12-22T02:04:22;99026.75;;;5.60;99.55
3132;BME280;62090;52.330;9.104;2023-12-22T02:06:52;98939.22;;;5.10;99.75
3132;BME280;62090;52.330;9.104;2023-12-22T02:09:22;99049.81;;;5.79;98.33
3132;BME280;62090;52.330;9.104;2023-12-22T02:11:52;99071.75;;;5.80;98.64
3132;BME280;62090;52.330;9.104;2023-12-22T02:14:24;99078.41;;;5.75;99.33
3132;BME280;62090;52.330;9.104;2023-12-22T02:17:02;99047.81;;;5.60;99.62
3132;BME280;62090;52.330;9.104;2023-12-22T02:19:41;99071.50;;;5.65;99.90
3132;BME280;62090;52.330;9.104;2023-12-22T02:22:12;99079.78;;;5.58;100.00
3132;BME280;62090;52.330;9.104;2023-12-22T02:24:44;99034.69;;;5.31;100.00
3132;BME280;62090;52.330;9.104;2023-12-22T02:27:28;98983.06;;;5.16;100.00
3132;BME280;62090;52.330;9.104;2023-12-22T02:30:03;99041.66;;;5.46;100.00
3132;BME280;62090;52.330;9.104;2023-12-22T02:32:38;99090.03;;;5.66;100.00
3132;BME280;62090;52.330;9.104;2023-12-22T02:35:20;99050.16;;;5.49;100.00
3132;BME280;62090;52.330;9.104;2023-12-22T02:37:51;98977.66;;;4.96;100.00
3132;BME280;62090;52.330;9.104;2023-12-22T02:40:25;98998.53;;;4.87;100.00
3132;BME280;62090;52.330;9.104;2023-12-22T02:42:55;98981.88;;;4.95;100.00
3132;BME280;62090;52.330;9.104;2023-12-22T02:45:25;98957.09;;;4.76;100.00
3132;BME280;62090;52.330;9.104;2023-12-22T02:47:57;99002.09;;;4.97;100.00
3132;BME280;62090;52.330;9.104;2023-12-22T02:50:27;99027.53;;;5.09;100.00
3132;BME280;62090;52.330;9.104;2023-12-22T02:52:57;99036.31;;;5.28;100.00
3132;BME280;62090;52.330;9.104;2023-12-22T02:55:29;99051.47;;;5.28;100.00
3132;BME280;62090;52.330;9.104;2023-12-22T02:58:01;99003.81;;;4.99;100.00
3132;BME280;62090;52.330;9.104;2023-12-22T03:00:31;99019.38;;;5.22;100.00
3132;BME280;62090;52.330;9.104;2023-12-22T03:03:01;99032.19;;;5.33;100.00
3132;BME280;62090;52.330;9.104;2023-12-22T03:05:31;99004.34;;;5.30;100.00
3132;BME280;62090;52.330;9.104;2023-12-22T03:08:01;99001.78;;;5.27;100.00
3132;BME280;62090;52.330;9.104;2023-12-22T03:10:33;98971.03;;;5.02;100.00
3132;BME280;62090;52.330;9.104;2023-12-22T03:13:03;98970.84;;;4.90;100.00
3132;BME280;62090;52.330;9.104;2023-12-22T03:15:33;99030.59;;;5.38;100.00
3132;BME280;62090;52.330;9.104;2023-12-22T03:18:03;98995.66;;;5.14;100.00
3132;BME280;62090;52.330;9.104;2023-12-22T03:20:33;99030.59;;;5.38;100.00
3132;BME280;62090;52.330;9.104;2023-12-22T03:23:03;99037.44;;;5.43;100.00
3132;BME280;62090;52.330;9.104;2023-12-22T03:25:35;98975.75;;;5.31;99.64
3132;BME280;62090;52.330;9.104;2023-12-22T03:28:05;99009.56;;;5.39;98.69
3132;BME280;62090;52.330;9.104;2023-12-22T03:30:35;99017.97;;;5.38;98.21
3132;BME280;62090;52.330;9.104;2023-12-22T03:33:05;99002.00;;;5.39;98.06
3132;BME280;62090;52.330;9.104;2023-12-22T03:35:35;99023.91;;;5.41;97.02
3132;BME280;62090;52.330;9.104;2023-12-22T03:38:05;98980.50;;;5.14;97.03
3132;BME280;62090;52.330;9.104;2023-12-22T03:40:37;99000.28;;;5.39;96.09
3132;BME280;62090;52.330;9.104;2023-12-22T03:43:07;98997.63;;;5.30;97.55
3132;BME280;62090;52.330;9.104;2023-12-22T03:45:37;98827.56;;;4.26;97.40
3132;BME280;62090;52.330;9.104;2023-12-22T03:48:07;99002.81;;;5.39;96.82
3132;BME280;62090;52.330;9.104;2023-12-22T03:50:37;98950.22;;;5.13;96.65
3132;BME280;62090;52.330;9.104;2023-12-22T03:53:07;98955.06;;;5.03;97.30
3132;BME280;62090;52.330;9.104;2023-12-22T03:55:39;98949.34;;;5.14;97.08
3132;BME280;62090;52.330;9.104;2023-12-22T03:58:09;98996.97;;;5.42;96.57
3132;BME280;62090;52.330;9.104;2023-12-22T04:00:39;99012.34;;;5.54;96.66
3132;BME280;62090;52.330;9.104;2023-12-22T04:03:09;98998.63;;;5.40;96.18
3132;BME280;62090;52.330;9.104;2023-12-22T04:05:39;99014.06;;;5.57;96.35
3132;BME280;62090;52.330;9.104;2023-12-22T04:08:09;98983.44;;;5.37;95.79
3132;BME280;62090;52.330;9.104;2023-12-22T04:10:41;98979.22;;;5.37;95.52
3132;BME280;62090;52.330;9.104;2023-12-22T04:13:11;99020.09;;;5.65;95.60
3132;BME280;62090;52.330;9.104;2023-12-22T04:15:41;99021.00;;;5.68;95.83
3132;BME280;62090;52.330;9.104;2023-12-22T04:18:11;98917.38;;;5.11;94.02
3132;BME280;62090;52.330;9.104;2023-12-22T04:20:41;99007.47;;;5.66;93.66
3132;BME280;62090;52.330;9.104;2023-12-22T04:23:11;99021.94;;;5.76;92.87
3132;BME280;62090;52.330;9.104;2023-12-22T04:25:43;99021.13;;;5.76;93.10
3132;BME280;62090;52.330;9.104;2023-12-22T04:28:13;98996.09;;;5.40;93.34
3132;BME280;62090;52.330;9.104;2023-12-22T04:30:43;98932.56;;;5.16;94.10
3132;BME280;62090;52.330;9.104;2023-12-22T04:33:13;99025.25;;;5.71;94.54
3132;BME280;62090;52.330;9.104;2023-12-22T04:35:43;99028.56;;;5.68;95.36
3132;BME280;62090;52.330;9.104;2023-12-22T04:38:12;99022.78;;;5.74;95.63
3132;BME280;62090;52.330;9.104;2023-12-22T04:40:45;99000.59;;;5.58;95.15
3132;BME280;62090;52.330;9.104;2023-12-22T04:43:15;98947.94;;;5.28;94.81
3132;BME280;62090;52.330;9.104;2023-12-22T04:45:44;98937.84;;;5.28;94.75
3132;BME280;62090;52.330;9.104;2023-12-22T04:48:14;98986.97;;;5.48;95.38
3132;BME280;62090;52.330;9.104;2023-12-22T04:50:44;98939.47;;;5.26;96.43
3132;BME280;62090;52.330;9.104;2023-12-22T04:53:14;99003.28;;;5.65;95.99
3132;BME280;62090;52.330;9.104;2023-12-22T04:55:47;98989.72;;;5.62;96.83
3132;BME280;62090;52.330;9.104;2023-12-22T04:58:17;99043.16;;;5.84;99.13
3132;BME280;62090;52.330;9.104;2023-12-22T05:00:47;99009.00;;;5.55;100.00
3132;BME280;62090;52.330;9.104;2023-12-22T05:03:17;98996.28;;;5.49;100.00
3132;BME280;62090;52.330;9.104;2023-12-22T05:05:47;98971.69;;;5.39;100.00
3132;BME280;62090;52.330;9.104;2023-12-22T05:08:17;98964.78;;;5.30;100.00
3132;BME280;62090;52.330;9.104;2023-12-22T05:10:49;99019.31;;;5.69;100.00
3132;BME280;62090;52.330;9.104;2023-12-22T05:13:19;99025.19;;;5.68;99.36
3132;BME280;62090;52.330;9.104;2023-12-22T05:15:49;98985.31;;;5.48;99.43
3132;BME280;62090;52.330;9.104;2023-12-22T05:18:19;98914.06;;;5.15;97.50
3132;BME280;62090;52.330;9.104;2023-12-22T05:20:49;99002.25;;;5.56;97.04
3132;BME280;62090;52.330;9.104;2023-12-22T05:23:20;98977.66;;;5.45;96.35
3132;BME280;62090;52.330;9.104;2023-12-22T05:25:53;99035.56;;;5.84;95.66
3132;BME280;62090;52.330;9.104;2023-12-22T05:28:23;99019.59;;;5.85;95.52
3132;BME280;62090;52.330;9.104;2023-12-22T05:30:52;99030.59;;;5.87;95.42
3132;BME280;62090;52.330;9.104;2023-12-22T05:33:22;99036.56;;;5.92;95.39
3132;BME280;62090;52.330;9.104;2023-12-22T05:35:52;98989.69;;;5.59;96.37
3132;BME280;62090;52.330;9.104;2023-12-22T05:38:22;99034.63;;;5.78;99.29
3132;BME280;62090;52.330;9.104;2023-12-22T05:40:55;99030.75;;;5.47;100.00
3132;BME280;62090;52.330;9.104;2023-12-22T05:43:25;99006.22;;;4.93;100.00
3132;BME280;62090;52.330;9.104;2023-12-22T05:45:55;98893.94;;;3.85;100.00
3132;BME280;62090;52.330;9.104;2023-12-22T05:48:25;98945.50;;;4.00;100.00
3132;BME280;62090;52.330;9.104;2023-12-22T05:50:56;99071.91;;;4.96;100.00
3132;BME280;62090;52.330;9.104;2023-12-22T05:53:25;98935.56;;;4.06;100.00
3132;BME280;62090;52.330;9.104;2023-12-22T05:55:58;99032.44;;;4.58;100.00
3132;BME280;62090;52.330;9.104;2023-12-22T05:58:28;98899.25;;;3.98;100.00
3132;BME280;62090;52.330;9.104;2023-12-22T06:00:58;98899.66;;;4.16;100.00
3132;BME280;62090;52.330;9.104;2023-12-22T06:03:28;98819.44;;;3.55;100.00
3132;BME280;62090;52.330;9.104;2023-12-22T06:05:58;99011.06;;;4.83;100.00
3132;BME280;62090;52.330;9.104;2023-12-22T06:08:34;99036.78;;;5.08;100.00
3132;BME280;62090;52.330;9.104;2023-12-22T06:11:07;99027.72;;;5.18;100.00
3132;BME280;62090;52.330;9.104;2023-12-22T06:13:37;98939.31;;;4.68;100.00
3132;BME280;62090;52.330;9.104;2023-12-22T06:16:11;98919.88;;;4.63;100.00
3132;BME280;62090;52.330;9.104;2023-12-22T06:18:41;99022.75;;;5.23;100.00
3132;BME280;62090;52.330;9.104;2023-12-22T06:21:11;99055.22;;;5.51;100.00
3132;BME280;62090;52.330;9.104;2023-12-22T06:23:42;99015.25;;;5.29;100.00
3132;BME280;62090;52.330;9.104;2023-12-22T06:26:14;99033.97;;;5.40;100.00
3132;BME280;62090;52.330;9.104;2023-12-22T06:28:44;99026.28;;;5.32;100.00
3132;BME280;62090;52.330;9.104;2023-12-22T06:31:18;99074.59;;;5.52;100.00
3132;BME280;62090;52.330;9.104;2023-12-22T06:33:50;99029.56;;;5.27;100.00
3132;BME280;62090;52.330;9.104;2023-12-22T06:36:20;99066.88;;;5.43;100.00
3132;BME280;62090;52.330;9.104;2023-12-22T06:38:50;99101.72;;;5.62;100.00
3132;BME280;62090;52.330;9.104;2023-12-22T06:41:25;98976.94;;;5.01;100.00
3132;BME280;62090;52.330;9.104;2023-12-22T06:43:56;99076.63;;;5.71;100.00
3132;BME280;62090;52.330;9.104;2023-12-22T06:46:28;98944.69;;;4.87;100.00
3132;BME280;62090;52.330;9.104;2023-12-22T06:48:58;99114.69;;;5.82;100.00
3132;BME280;62090;52.330;9.104;2023-12-22T06:51:32;99082.38;;;5.63;100.00
3132;BME280;62090;52.330;9.104;2023-12-22T06:54:03;99093.56;;;5.77;100.00
3132;BME280;62090;52.330;9.104;2023-12-22T06:56:38;99102.84;;;5.78;100.00
3132;BME280;62090;52.330;9.104;2023-12-22T06:59:08;99117.22;;;5.82;100.00
3132;BME280;62090;52.330;9.104;2023-12-22T07:01:42;99103.00;;;5.85;100.00
3132;BME280;62090;52.330;9.104;2023-12-22T07:04:29;99118.97;;;5.84;100.00
3132;BME280;62090;52.330;9.104;2023-12-22T07:06:58;99124.00;;;5.81;100.00
3132;BME280;62090;52.330;9.104;2023-12-22T07:09:31;99107.59;;;5.60;100.00
3132;BME280;62090;52.330;9.104;2023-12-22T07:12:04;99125.63;;;5.79;100.00
3132;BME280;62090;52.330;9.104;2023-12-22T07:14:35;99055.81;;;5.36;100.00
3132;BME280;62090;52.330;9.104;2023-12-22T07:17:05;99135.06;;;5.88;100.00
3132;BME280;62090;52.330;9.104;2023-12-22T07:19:34;99128.38;;;5.90;100.00
3132;BME280;62090;52.330;9.104;2023-12-22T07:22:04;99132.56;;;5.89;100.00
3132;BME280;62090;52.330;9.104;2023-12-22T07:24:34;99146.97;;;5.92;98.40
3132;BME280;62090;52.330;9.104;2023-12-22T07:27:07;99035.41;;;5.26;98.04
3132;BME280;62090;52.330;9.104;2023-12-22T07:29:37;99113.66;;;5.69;97.94
3132;BME280;62090;52.330;9.104;2023-12-22T07:32:07;99160.44;;;5.94;98.30
3132;BME280;62090;52.330;9.104;2023-12-22T07:34:37;99088.06;;;5.51;97.64
3132;BME280;62090;52.330;9.104;2023-12-22T07:37:07;99162.25;;;6.01;96.89
3132;BME280;62090;52.330;9.104;2023-12-22T07:39:37;99153.53;;;5.85;96.64
3132;BME280;62090;52.330;9.104;2023-12-22T07:42:12;99195.16;;;6.03;96.26
3132;BME280;62090;52.330;9.104;2023-12-22T07:44:43;99192.72;;;6.07;95.68
3132;BME280;62090;52.330;9.104;2023-12-22T07:47:13;99186.00;;;6.09;95.16
3132;BME280;62090;52.330;9.104;2023-12-22T07:49:43;99200.38;;;6.12;95.08
3132;BME280;62090;52.330;9.104;2023-12-22T07:52:13;99208.97;;;6.21;93.55
3132;BME280;62090;52.330;9.104;2023-12-22T07:54:44;99211.59;;;6.27;93.28
3132;BME280;62090;52.330;9.104;2023-12-22T07:57:17;99224.34;;;6.33;92.98
3132;BME280;62090;52.330;9.104;2023-12-22T07:59:47;99164.72;;;5.97;92.66
3132;BME280;62090;52.330;9.104;2023-12-22T08:02:17;99231.94;;;6.35;91.86
3132;BME280;62090;52.330;9.104;2023-12-22T08:04:47;99220.16;;;6.34;91.70
3132;BME280;62090;52.330;9.104;2023-12-22T08:07:17;99214.34;;;6.41;92.24
3132;BME280;62090;52.330;9.104;2023-12-22T08:09:47;99225.44;;;6.48;90.52
3132;BME280;62090;52.330;9.104;2023-12-22T08:12:19;99227.16;;;6.52;91.51
3132;BME280;62090;52.330;9.104;2023-12-22T08:14:49;99189.78;;;6.35;89.75
3132;BME280;62090;52.330;9.104;2023-12-22T08:17:19;99196.41;;;6.26;90.06
3132;BME280;62090;52.330;9.104;2023-12-22T08:19:49;99235.69;;;6.57;89.91
3132;BME280;62090;52.330;9.104;2023-12-22T08:22:20;99184.59;;;6.26;89.57
3132;BME280;62090;52.330;9.104;2023-12-22T08:24:56;99120.97;;;6.01;90.09
3132;BME280;62090;52.330;9.104;2023-12-22T08:27:28;99221.66;;;6.75;89.78
3132;BME280;62090;52.330;9.104;2023-12-22T08:29:59;99225.81;;;6.73;88.72
3132;BME280;62090;52.330;9.104;2023-12-22T08:32:30;99098.31;;;6.07;89.13
3132;BME280;62090;52.330;9.104;2023-12-22T08:35:00;99236.94;;;6.82;89.09
3132;BME280;62090;52.330;9.104;2023-12-22T08:37:34;99251.09;;;6.72;88.14
3132;BME280;62090;52.330;9.104;2023-12-22T08:40:06;99248.72;;;6.79;88.19
3132;BME280;62090;52.330;9.104;2023-12-22T08:42:38;99230.16;;;6.81;87.54
3132;BME280;62090;52.330;9.104;2023-12-22T08:45:08;99228.34;;;6.73;88.05
3132;BME280;62090;52.330;9.104;2023-12-22T08:47:38;99221.34;;;6.57;87.81
3132;BME280;62090;52.330;9.104;2023-12-22T08:50:09;99254.78;;;6.91;87.34
3132;BME280;62090;52.330;9.104;2023-12-22T08:52:40;99226.47;;;6.60;87.89
3132;BME280;62090;52.330;9.104;2023-12-22T08:55:10;99278.53;;;6.97;87.35
3132;BME280;62090;52.330;9.104;2023-12-22T08:57:43;99224.19;;;6.77;86.45
3132;BME280;62090;52.330;9.104;2023-12-22T09:00:25;99199.34;;;6.50;87.00
3132;BME280;62090;52.330;9.104;2023-12-22T09:02:55;99288.72;;;7.03;86.56
3132;BME280;62090;52.330;9.104;2023-12-22T09:05:25;99301.41;;;7.05;86.30
3132;BME280;62090;52.330;9.104;2023-12-22T09:07:53;99220.50;;;6.55;86.60
3132;BME280;62090;52.330;9.104;2023-12-22T09:10:24;99285.09;;;6.86;85.97
3132;BME280;62090;52.330;9.104;2023-12-22T09:12:57;99294.50;;;6.95;86.86
3132;BME280;62090;52.330;9.104;2023-12-22T09:15:27;99277.03;;;6.57;89.60
3132;BME280;62090;52.330;9.104;2023-12-22T09:17:57;99258.66;;;6.18;92.16
3132;BME280;62090;52.330;9.104;2023-12-22T09:20:27;99329.94;;;6.45;93.93
3132;BME280;62090;52.330;9.104;2023-12-22T09:22:57;99246.44;;;5.96;95.95
3132;BME280;62090;52.330;9.104;2023-12-22T09:25:30;99158.09;;;5.58;96.45
3132;BME280;62090;52.330;9.104;2023-12-22T09:28:03;99308.88;;;6.46;97.46
3132;BME280;62090;52.330;9.104;2023-12-22T09:30:33;99291.06;;;6.39;98.32
3132;BME280;62090;52.330;9.104;2023-12-22T09:33:03;99295.22;;;6.36;98.21
3132;BME280;62090;52.330;9.104;2023-12-22T09:35:33;99290.31;;;6.44;99.05
3132;BME280;62090;52.330;9.104;2023-12-22T09:38:03;99201.88;;;6.01;99.08
3132;BME280;62090;52.330;9.104;2023-12-22T09:40:33;99237.78;;;6.31;99.81
3132;BME280;62090;52.330;9.104;2023-12-22T09:43:06;99181.84;;;6.13;99.85
3132;BME280;62090;52.330;9.104;2023-12-22T09:45:39;99267.03;;;6.66;100.00
3132;BME280;62090;52.330;9.104;2023-12-22T09:48:10;99240.38;;;6.34;99.42
3132;BME280;62090;52.330;9.104;2023-12-22T09:50:44;99260.19;;;6.59;100.00
3132;BME280;62090;52.330;9.104;2023-12-22T09:53:14;99203.31;;;6.36;100.00
3132;BME280;62090;52.330;9.104;2023-12-22T09:55:46;99251.00;;;6.64;100.00
3132;BME280;62090;52.330;9.104;2023-12-22T09:58:18;99207.53;;;6.37;100.00
3132;BME280;62090;52.330;9.104;2023-12-22T10:00:49;99260.47;;;6.77;100.00
3132;BME280;62090;52.330;9.104;2023-12-22T10:03:21;99259.88;;;6.92;100.00
3132;BME280;62090;52.330;9.104;2023-12-22T10:05:53;99243.78;;;6.89;100.00
3132;BME280;62090;52.330;9.104;2023-12-22T10:08:23;99220.13;;;6.87;100.00
3132;BME280;62090;52.330;9.104;2023-12-22T10:10:54;99037.19;;;5.79;99.81
3132;BME280;62090;52.330;9.104;2023-12-22T10:13:27;99243.13;;;7.02;99.69
3132;BME280;62090;52.330;9.104;2023-12-22T10:15:57;99247.38;;;7.03;99.52
3132;BME280;62090;52.330;9.104;2023-12-22T10:18:27;99230.59;;;7.11;99.56
3132;BME280;62090;52.330;9.104;2023-12-22T10:20:57;99192.34;;;6.91;99.21
3132;BME280;62090;52.330;9.104;2023-12-22T10:23:28;99196.78;;;7.09;99.03
3132;BME280;62090;52.330;9.104;2023-12-22T10:25:58;99175.53;;;6.96;98.99
3132;BME280;62090;52.330;9.104;2023-12-22T10:28:31;99205.56;;;7.35;99.02
3132;BME280;62090;52.330;9.104;2023-12-22T10:31:02;99209.00;;;7.39;99.24
3132;BME280;62090;52.330;9.104;2023-12-22T10:33:34;99212.44;;;7.42;99.60
3132;BME280;62090;52.330;9.104;2023-12-22T10:36:05;99200.63;;;7.44;98.75
3132;BME280;62090;52.330;9.104;2023-12-22T10:38:36;99193.13;;;7.50;99.44
3132;BME280;62090;52.330;9.104;2023-12-22T10:41:06;99149.78;;;7.31;99.41
3132;BME280;62090;52.330;9.104;2023-12-22T10:43:40;99171.81;;;7.36;99.76
3132;BME280;62090;52.330;9.104;2023-12-22T10:46:11;99103.03;;;7.03;99.70
3132;BME280;62090;52.330;9.104;2023-12-22T10:48:41;99138.94;;;7.39;99.10
3132;BME280;62090;52.330;9.104;2023-12-22T10:51:13;99098.19;;;7.22;98.86
3132;BME280;62090;52.330;9.104;2023-12-22T10:53:43;99185.56;;;7.58;98.23
3132;BME280;62090;52.330;9.104;2023-12-22T10:56:13;99233.75;;;7.59;99.25
3132;BME280;62090;52.330;9.104;2023-12-22T10:58:46;99097.03;;;6.96;99.46
3132;BME280;62090;52.330;9.104;2023-12-22T11:01:16;99047.88;;;6.79;99.72
3132;BME280;62090;52.330;9.104;2023-12-22T11:03:50;99150.81;;;7.46;99.99
3132;BME280;62090;52.330;9.104;2023-12-22T11:06:21;99166.91;;;7.51;99.54
3132;BME280;62090;52.330;9.104;2023-12-22T11:08:56;99205.25;;;7.79;99.20
3132;BME280;62090;52.330;9.104;2023-12-22T11:11:30;99189.03;;;7.64;99.14
3132;BME280;62090;52.330;9.104;2023-12-22T11:14:04;99220.53;;;7.85;99.25
3132;BME280;62090;52.330;9.104;2023-12-22T11:16:35;99191.53;;;7.61;98.39
3132;BME280;62090;52.330;9.104;2023-12-22T11:19:06;99205.13;;;7.67;98.39
3132;BME280;62090;52.330;9.104;2023-12-22T11:21:37;99189.88;;;7.65;98.06
3132;BME280;62090;52.330;9.104;2023-12-22T11:24:11;99200.13;;;7.74;98.07
3132;BME280;62090;52.330;9.104;2023-12-22T11:26:42;99212.81;;;7.76;97.52
3132;BME280;62090;52.330;9.104;2023-12-22T11:29:15;99200.00;;;7.63;96.68
3132;BME280;62090;52.330;9.104;2023-12-22T11:31:47;99215.38;;;7.77;96.31
3132;BME280;62090;52.330;9.104;2023-12-22T11:34:20;99207.81;;;7.82;95.68
3132;BME280;62090;52.330;9.104;2023-12-22T11:36:50;99161.72;;;7.39;95.73
3132;BME280;62090;52.330;9.104;2023-12-22T11:39:22;99201.88;;;7.83;96.31
3132;BME280;62090;52.330;9.104;2023-12-22T11:41:53;99190.13;;;7.89;95.62
3132;BME280;62090;52.330;9.104;2023-12-22T11:44:26;99196.91;;;7.90;94.73
3132;BME280;62090;52.330;9.104;2023-12-22T11:47:06;99112.00;;;7.49;94.87
3132;BME280;62090;52.330;9.104;2023-12-22T11:49:37;99169.03;;;7.92;95.15
3132;BME280;62090;52.330;9.104;2023-12-22T11:52:11;99133.38;;;7.75;95.45
3132;BME280;62090;52.330;9.104;2023-12-22T11:54:49;99170.84;;;8.05;95.27
3132;BME280;62090;52.330;9.104;2023-12-22T11:57:36;99146.25;;;7.96;95.01
3132;BME280;62090;52.330;9.104;2023-12-22T12:00:41;99132.59;;;7.84;94.78
3132;BME280;62090;52.330;9.104;2023-12-22T12:03:11;99132.66;;;7.88;95.66
3132;BME280;62090;52.330;9.104;2023-12-22T12:05:42;99140.31;;;7.93;96.12
3132;BME280;62090;52.330;9.104;2023-12-22T12:08:12;99096.09;;;7.63;95.82
3132;BME280;62090;52.330;9.104;2023-12-22T12:10:52;99097.81;;;7.66;95.70
3132;BME280;62090;52.330;9.104;2023-12-22T12:13:23;99080.06;;;7.66;95.50
3132;BME280;62090;52.330;9.104;2023-12-22T12:15:58;99148.09;;;8.13;95.88
3132;BME280;62090;52.330;9.104;2023-12-22T12:18:29;99153.16;;;8.11;95.75
3132;BME280;62090;52.330;9.104;2023-12-22T12:20:59;99148.13;;;8.20;95.68
3132;BME280;62090;52.330;9.104;2023-12-22T12:23:30;99149.84;;;8.21;95.12
3132;BME280;62090;52.330;9.104;2023-12-22T12:26:00;99110.66;;;7.86;95.38
3132;BME280;62090;52.330;9.104;2023-12-22T12:28:31;99066.47;;;7.58;94.91
3132;BME280;62090;52.330;9.104;2023-12-22T12:31:06;99166.75;;;8.18;95.17
3132;BME280;62090;52.330;9.104;2023-12-22T12:33:36;99168.34;;;8.10;95.70
3132;BME280;62090;52.330;9.104;2023-12-22T12:36:06;99140.34;;;7.97;95.96
3132;BME280;62090;52.330;9.104;2023-12-22T12:38:43;99079.19;;;7.64;95.77
3132;BME280;62090;52.330;9.104;2023-12-22T12:41:15;99114.84;;;7.81;96.09
3132;BME280;62090;52.330;9.104;2023-12-22T12:43:51;99128.56;;;8.02;96.02
3132;BME280;62090;52.330;9.104;2023-12-22T12:46:32;99134.47;;;8.01;95.58
3132;BME280;62090;52.330;9.104;2023-12-22T12:49:03;99112.31;;;7.82;95.90
3132;BME280;62090;52.330;9.104;2023-12-22T12:51:37;99166.69;;;8.15;97.12
3132;BME280;62090;52.330;9.104;2023-12-22T12:54:08;99136.06;;;7.93;97.05
3132;BME280;62090;52.330;9.104;2023-12-22T12:56:39;99160.75;;;8.11;97.39
3132;BME280;62090;52.330;9.104;2023-12-22T12:59:10;99164.97;;;8.11;97.41
3132;BME280;62090;52.330;9.104;2023-12-22T13:01:44;99116.50;;;7.79;97.75
3132;BME280;62090;52.330;9.104;2023-12-22T13:04:15;99131.78;;;7.85;98.39
3132;BME280;62090;52.330;9.104;2023-12-22T13:06:45;99151.34;;;7.98;98.20
3132;BME280;62090;52.330;9.104;2023-12-22T13:09:16;99159.81;;;8.00;99.11
3132;BME280;62090;52.330;9.104;2023-12-22T13:11:46;99119.72;;;7.62;98.99
3132;BME280;62090;52.330;9.104;2023-12-22T13:14:21;99033.22;;;7.26;98.96
3132;BME280;62090;52.330;9.104;2023-12-22T13:16:55;99113.00;;;7.68;99.42
3132;BME280;62090;52.330;9.104;2023-12-22T13:19:26;99103.63;;;7.56;99.23
3132;BME280;62090;52.330;9.104;2023-12-22T13:21:56;99155.56;;;7.99;99.55
3132;BME280;62090;52.330;9.104;2023-12-22T13:24:27;99079.19;;;7.61;98.92
3132;BME280;62090;52.330;9.104;2023-12-22T13:27:01;99145.47;;;8.05;98.83
3132;BME280;62090;52.330;9.104;2023-12-22T13:29:43;99147.97;;;8.00;99.40
3132;BME280;62090;52.330;9.104;2023-12-22T13:32:22;99154.72;;;7.98;99.60
3132;BME280;62090;52.330;9.104;2023-12-22T13:34:54;99150.47;;;7.93;99.94
3132;BME280;62090;52.330;9.104;2023-12-22T13:37:24;99147.91;;;7.94;100.00
3132;BME280;62090;52.330;9.104;2023-12-22T13:39:58;99154.59;;;7.88;100.00